Armington, Montana
Current Conditions -  °F | °C
As of 12:56 PM on Saturday 25 Oct 2014 (Local Time) from KGFA Reporting Station
Clear Clear  
Wind Chill: 54°   Ceiling: Unl
Heat Index: 54°   Visibility: 10mi
Dew Point: 42°   Wind: 5mph
Humidity: 64%   Direction: 20°NNE
Pressure: 29.84"   Gusts: NA
Location:  47.3298°N, 110.893°W
Report Text: KGFA 251856Z AUTO 02004KT 10SM CLR 12/05 A2984 RMK AO2 SLPNO T01200053
Loading
Personal Weather Stations






























Interactive Weather Map
Tropical Storm Tracking
New forecast layout! Learn more

10-Day Weather Forecast

Advertisements
Track Severe Weather on mobile